createdAt,value
2022-09-20T00:03:02.061Z,13.60
2022-09-20T00:08:06.132Z,14.50
2022-09-20T00:13:12.017Z,12.20
2022-09-20T00:18:14.867Z,12.60
2022-09-20T00:23:17.854Z,11.60
2022-09-20T00:28:20.790Z,11.90
2022-09-20T00:33:24.735Z,10.90
2022-09-20T00:38:27.379Z,12.70
2022-09-20T00:43:42.027Z,12.80
2022-09-20T00:48:44.898Z,16.10
2022-09-20T00:53:49.169Z,13.10
2022-09-20T00:59:31.351Z,12.50
2022-09-20T01:04:34.902Z,12.60
2022-09-20T01:09:37.647Z,14.70
2022-09-20T01:14:41.560Z,12.20
2022-09-20T01:20:20.137Z,13.70
2022-09-20T01:26:12.409Z,12.40
2022-09-20T01:31:32.283Z,14.40
2022-09-20T01:36:56.499Z,13.90
2022-09-20T01:42:04.030Z,13.50
2022-09-20T01:47:40.683Z,11.00
2022-09-20T01:53:27.375Z,13.60
2022-09-20T01:58:38.619Z,12.60
2022-09-20T02:04:18.951Z,13.80
2022-09-20T02:10:00.482Z,13.00
2022-09-20T02:15:24.907Z,15.50
2022-09-20T02:20:49.015Z,13.30
2022-09-20T02:26:33.286Z,13.00
2022-09-20T02:32:24.905Z,11.60
2022-09-20T02:38:10.527Z,13.10
2022-09-20T02:43:44.628Z,13.60
2022-09-20T02:49:27.095Z,14.50
2022-09-20T02:54:55.189Z,14.30
2022-09-20T03:00:10.662Z,14.20
2022-09-20T03:05:32.089Z,16.20
2022-09-20T03:11:26.578Z,13.10
2022-09-20T03:16:59.913Z,13.90
2022-09-20T03:22:26.875Z,12.30
2022-09-20T03:27:50.466Z,13.60
2022-09-20T03:33:05.412Z,12.70
2022-09-20T03:38:55.237Z,14.10
2022-09-20T03:43:57.920Z,12.60
2022-09-20T03:49:32.793Z,12.20
2022-09-20T03:55:04.988Z,12.10
2022-09-20T04:00:11.637Z,12.40
2022-09-20T04:05:23.366Z,11.40
2022-09-20T04:10:47.006Z,11.50
2022-09-20T04:16:05.014Z,11.40
2022-09-20T04:21:36.229Z,9.30
2022-09-20T04:26:46.724Z,10.70
2022-09-20T04:32:16.756Z,9.70
2022-09-20T04:37:27.684Z,10.00
2022-09-20T04:43:14.722Z,11.20
2022-09-20T04:49:05.146Z,9.80
2022-09-20T04:54:57.830Z,8.80
2022-09-20T05:00:14.830Z,10.00
2022-09-20T05:05:35.800Z,8.80
2022-09-20T05:11:19.121Z,10.80
2022-09-20T05:16:29.616Z,10.30
2022-09-20T05:21:44.254Z,8.80
2022-09-20T05:27:24.075Z,8.80
2022-09-20T05:32:55.731Z,9.90
2022-09-20T05:38:13.565Z,10.00
2022-09-20T05:43:35.178Z,9.30
2022-09-20T05:49:04.836Z,10.40
2022-09-20T05:54:19.798Z,8.40
2022-09-20T05:59:47.921Z,8.40
2022-09-20T06:05:28.850Z,7.70
2022-09-20T06:11:11.172Z,8.00
2022-09-20T06:16:47.222Z,9.50
2022-09-20T06:21:59.811Z,9.20
2022-09-20T06:27:10.583Z,8.70
2022-09-20T06:38:05.170Z,12.50
2022-09-20T06:43:07.989Z,9.70
2022-09-20T06:48:13.195Z,12.10
2022-09-20T06:53:18.875Z,11.10
2022-09-20T06:58:21.493Z,10.40
2022-09-20T07:03:24.141Z,11.10
2022-09-20T07:08:27.344Z,11.20
2022-09-20T07:13:30.121Z,12.00
2022-09-20T07:18:33.580Z,9.80
2022-09-20T07:23:36.197Z,10.80
2022-09-20T07:28:38.872Z,11.10
2022-09-20T07:33:41.688Z,9.70
2022-09-20T07:38:50.984Z,10.60
2022-09-20T07:43:54.019Z,12.50
2022-09-20T07:48:56.690Z,8.90
2022-09-20T07:53:59.504Z,9.20
2022-09-20T07:59:02.156Z,11.30
2022-09-20T08:04:09.050Z,10.90
2022-09-20T08:09:12.855Z,7.80
2022-09-20T08:14:17.256Z,10.30
2022-09-20T08:19:22.796Z,9.50
2022-09-20T08:24:26.822Z,8.50
2022-09-20T08:29:29.473Z,7.50
2022-09-20T08:34:32.661Z,8.00
2022-09-20T08:45:00.796Z,7.50
2022-09-20T08:50:10.169Z,7.80
2022-09-20T08:55:28.054Z,10.40
2022-09-20T09:00:32.736Z,7.80
2022-09-20T09:05:50.702Z,8.50
2022-09-20T09:11:11.858Z,8.20
2022-09-20T09:16:22.721Z,6.40
2022-09-20T09:21:29.099Z,6.90
2022-09-20T09:26:43.312Z,9.10
2022-09-20T09:31:48.578Z,8.50
2022-09-20T09:36:51.409Z,9.70
2022-09-20T09:41:54.434Z,8.70
2022-09-20T09:46:57.368Z,10.60
2022-09-20T09:52:14.364Z,9.70
2022-09-20T09:57:53.961Z,11.00
2022-09-20T10:03:48.724Z,11.50
2022-09-20T10:09:13.293Z,11.10
2022-09-20T10:14:53.118Z,11.60
2022-09-20T10:20:20.386Z,11.80
2022-09-20T10:25:39.071Z,7.90
2022-09-20T10:36:14.493Z,8.70
2022-09-20T10:42:00.694Z,6.90
2022-09-20T10:47:21.468Z,8.20
2022-09-20T10:52:43.124Z,6.80
2022-09-20T10:58:26.324Z,5.60
2022-09-20T11:03:35.101Z,5.30
2022-09-20T11:08:38.382Z,6.60
2022-09-20T11:13:49.482Z,6.00
2022-09-20T11:19:31.519Z,6.80
2022-09-20T11:24:41.117Z,7.80
2022-09-20T11:29:58.300Z,8.30
2022-09-20T11:35:19.910Z,7.80
2022-09-20T11:40:27.958Z,7.50
2022-09-20T11:45:30.967Z,5.80
2022-09-20T11:51:03.081Z,4.50
2022-09-20T11:56:26.455Z,3.90
2022-09-20T12:01:41.315Z,3.00
2022-09-20T12:06:44.105Z,4.60
2022-09-20T12:11:46.740Z,3.00
2022-09-20T12:16:49.584Z,4.10
2022-09-20T12:21:58.223Z,3.50
2022-09-20T12:27:29.466Z,4.10
2022-09-20T12:32:46.811Z,2.70
2022-09-20T12:37:49.468Z,2.80
2022-09-20T12:42:56.860Z,2.20
2022-09-20T12:47:59.541Z,2.70
2022-09-20T12:53:07.231Z,1.60
2022-09-20T12:58:15.593Z,2.00
2022-09-20T13:03:28.809Z,3.60
2022-09-20T13:08:42.884Z,3.20
2022-09-20T13:14:17.016Z,3.90
2022-09-20T13:19:28.526Z,2.40
2022-09-20T13:24:35.676Z,2.90
2022-09-20T13:29:43.044Z,4.30
2022-09-20T13:34:45.816Z,5.70
2022-09-20T13:39:52.412Z,3.40
2022-09-20T13:44:56.252Z,3.20
2022-09-20T13:50:26.317Z,2.90
2022-09-20T13:55:32.029Z,4.20
2022-09-20T14:00:37.901Z,2.10
2022-09-20T14:05:47.977Z,2.10
2022-09-20T14:11:12.256Z,1.90
2022-09-20T14:16:15.489Z,1.90
2022-09-20T14:21:22.785Z,2.50
2022-09-20T14:26:39.740Z,2.70
2022-09-20T14:31:42.577Z,2.80
2022-09-20T14:36:48.546Z,2.60
2022-09-20T14:41:51.275Z,3.90
2022-09-20T14:46:54.559Z,4.90
2022-09-20T14:52:45.303Z,2.10
2022-09-20T14:57:48.122Z,2.70
2022-09-20T15:02:50.783Z,3.00
2022-09-20T15:07:57.029Z,2.50
2022-09-20T15:12:59.676Z,2.50
2022-09-20T15:18:03.299Z,3.90
2022-09-20T15:23:08.686Z,2.60
2022-09-20T15:28:18.420Z,3.20
2022-09-20T15:33:21.822Z,1.30
2022-09-20T15:38:26.819Z,1.20
2022-09-20T15:43:31.031Z,2.10
2022-09-20T15:48:34.468Z,1.40
2022-09-20T15:53:40.973Z,2.00
2022-09-20T15:58:48.806Z,1.80
2022-09-20T16:03:51.581Z,1.70
2022-09-20T16:08:55.360Z,1.50
2022-09-20T16:13:59.387Z,2.00
2022-09-20T16:19:17.997Z,4.10
2022-09-20T16:24:26.107Z,2.40
2022-09-20T16:29:30.364Z,1.90
2022-09-20T16:34:35.472Z,3.60
2022-09-20T16:39:40.347Z,2.70
2022-09-20T16:44:43.193Z,4.50
2022-09-20T16:49:47.289Z,3.30
2022-09-20T16:54:50.160Z,3.50
2022-09-20T16:59:55.779Z,3.20
2022-09-20T17:04:58.527Z,4.40
2022-09-20T17:10:02.678Z,3.20
2022-09-20T17:15:06.204Z,3.20
2022-09-20T17:20:09.110Z,2.60
2022-09-20T17:25:12.338Z,2.60
2022-09-20T17:30:15.037Z,3.30
2022-09-20T17:35:18.567Z,5.10
2022-09-20T17:40:21.617Z,2.20
2022-09-20T17:45:24.396Z,2.60
2022-09-20T17:50:27.210Z,3.40
2022-09-20T17:55:29.940Z,3.70
2022-09-20T18:00:32.660Z,3.90
2022-09-20T18:05:35.443Z,4.80
2022-09-20T18:10:38.460Z,7.10
2022-09-20T18:15:45.581Z,5.10
2022-09-20T18:20:48.739Z,4.90
2022-09-20T18:26:09.866Z,6.70
2022-09-20T18:31:12.743Z,4.70
2022-09-20T18:36:18.425Z,4.90
2022-09-20T18:41:31.849Z,5.00
2022-09-20T18:46:37.859Z,7.10
2022-09-20T18:51:41.954Z,11.30
2022-09-20T18:56:46.995Z,6.60
2022-09-20T19:03:24.483Z,7.00
2022-09-20T19:08:50.784Z,6.30
2022-09-20T19:14:00.825Z,8.50
2022-09-20T19:19:09.208Z,6.90
2022-09-20T19:25:15.332Z,8.80
2022-09-20T19:30:19.122Z,8.70
2022-09-20T19:35:30.303Z,9.10
2022-09-20T19:41:02.103Z,8.20
2022-09-20T19:46:26.968Z,9.60
2022-09-20T19:51:32.029Z,10.00
2022-09-20T19:56:43.862Z,7.50
2022-09-20T20:01:46.981Z,9.20
2022-09-20T20:07:29.763Z,7.00
2022-09-20T20:13:03.697Z,8.20
2022-09-20T20:18:32.484Z,6.90
2022-09-20T20:24:07.537Z,8.40
2022-09-20T20:29:10.524Z,7.10
2022-09-20T20:34:16.164Z,6.00
2022-09-20T20:39:19.237Z,6.10
2022-09-20T20:44:22.152Z,5.80
2022-09-20T20:49:24.911Z,4.70
2022-09-20T20:54:30.184Z,4.80
2022-09-20T20:59:32.977Z,6.00
2022-09-20T21:04:38.628Z,6.70
2022-09-20T21:09:41.243Z,6.40
2022-09-20T21:14:44.731Z,6.30
2022-09-20T21:19:47.475Z,5.80
2022-09-20T21:24:50.923Z,6.10
2022-09-20T21:29:54.497Z,7.50
2022-09-20T21:34:59.104Z,5.30
2022-09-20T21:40:02.475Z,6.30
2022-09-20T21:45:09.320Z,6.80
2022-09-20T21:50:11.998Z,9.00
2022-09-20T21:55:14.711Z,7.00
2022-09-20T22:00:18.547Z,6.90
2022-09-20T22:05:21.793Z,5.60
2022-09-20T22:10:24.555Z,6.10
2022-09-20T22:15:27.308Z,5.40
2022-09-20T22:20:30.112Z,5.10
2022-09-20T22:25:33.819Z,7.70
2022-09-20T22:30:36.511Z,7.10
2022-09-20T22:35:45.073Z,7.10
2022-09-20T22:46:07.014Z,8.40
2022-09-20T22:56:31.215Z,8.90
2022-09-20T23:01:45.299Z,11.10
2022-09-20T23:06:55.083Z,9.10
2022-09-20T23:11:58.004Z,8.10
2022-09-20T23:17:00.706Z,8.10
2022-09-20T23:22:03.435Z,9.10
2022-09-20T23:27:06.848Z,7.20
2022-09-20T23:32:09.651Z,6.90
2022-09-20T23:37:12.756Z,7.60
2022-09-20T23:42:15.440Z,7.20
2022-09-20T23:47:18.124Z,10.30
2022-09-20T23:52:20.756Z,15.60
2022-09-20T23:57:23.419Z,11.50
